Terminal Aerodrome Forecast
Issued by NWS Cleveland, OH

Home | Current Version | Previous Version | Graphics & Text | Print | Product List | Glossary On
Versions: 1 2 3 4 5 6 7 8 9 10 11 12 13 14 15 16 17 18 19 20 21 22 23
000
FTUS41 KCLE 210100 AAA
TAFYNG
TAF AMD
KYNG 210126Z 2101/2124 25012G20KT 5SM -SHSN OVC035
      TEMPO 2101/2105 1 1/2SM -SHSN OVC025
     FM210900 28008KT P6SM -SHSN OVC040
     FM211300 26008KT P6SM BKN040=

USA.gov is the U.S. government's official web portal to all federal, state and local government web resources and services.